sensor_id;sensor_type;location;lat;lon;timestamp;P1;durP1;ratioP1;P2;durP2;ratioP2
9900;SDS011;4989;48.772;9.154;2023-05-10T00:04:14;318.93;;;286.10;;
9900;SDS011;4989;48.772;9.154;2023-05-10T00:09:17;499.17;;;458.33;;
9900;SDS011;4989;48.772;9.154;2023-05-10T00:14:19;441.77;;;403.97;;
9900;SDS011;4989;48.772;9.154;2023-05-10T00:19:21;401.27;;;365.00;;
9900;SDS011;4989;48.772;9.154;2023-05-10T00:24:24;387.33;;;351.80;;
9900;SDS011;4989;48.772;9.154;2023-05-10T00:29:26;491.50;;;450.30;;
9900;SDS011;4989;48.772;9.154;2023-05-10T00:34:30;406.73;;;369.90;;
9900;SDS011;4989;48.772;9.154;2023-05-10T00:39:32;517.97;;;475.43;;
9900;SDS011;4989;48.772;9.154;2023-05-10T00:44:34;1.60;;;0.40;;
9900;SDS011;4989;48.772;9.154;2023-05-10T00:49:36;1.10;;;0.47;;
9900;SDS011;4989;48.772;9.154;2023-05-10T00:54:39;0.47;;;0.47;;
9900;SDS011;4989;48.772;9.154;2023-05-10T00:59:41;2.33;;;0.40;;
9900;SDS011;4989;48.772;9.154;2023-05-10T01:04:44;0.50;;;0.50;;
9900;SDS011;4989;48.772;9.154;2023-05-10T01:09:46;1.13;;;0.40;;
9900;SDS011;4989;48.772;9.154;2023-05-10T01:14:49;1.43;;;0.40;;
9900;SDS011;4989;48.772;9.154;2023-05-10T01:19:51;1.93;;;1.60;;
9900;SDS011;4989;48.772;9.154;2023-05-10T01:36:26;0.47;;;0.30;;
9900;SDS011;4989;48.772;9.154;2023-05-10T01:47:20;1.07;;;0.43;;
9900;SDS011;4989;48.772;9.154;2023-05-10T01:52:26;0.40;;;0.40;;
9900;SDS011;4989;48.772;9.154;2023-05-10T01:57:35;0.30;;;0.30;;
9900;SDS011;4989;48.772;9.154;2023-05-10T02:02:46;4.43;;;0.40;;
9900;SDS011;4989;48.772;9.154;2023-05-10T02:07:51;1.17;;;0.73;;
9900;SDS011;4989;48.772;9.154;2023-05-10T02:12:55;1.03;;;0.50;;
9900;SDS011;4989;48.772;9.154;2023-05-10T02:18:01;0.27;;;0.27;;
9900;SDS011;4989;48.772;9.154;2023-05-10T02:23:07;0.20;;;0.20;;
9900;SDS011;4989;48.772;9.154;2023-05-10T02:28:12;0.40;;;0.40;;
9900;SDS011;4989;48.772;9.154;2023-05-10T02:33:17;0.33;;;0.33;;
9900;SDS011;4989;48.772;9.154;2023-05-10T02:38:22;167.20;;;155.20;;
9900;SDS011;4989;48.772;9.154;2023-05-10T02:43:27;318.33;;;282.23;;
9900;SDS011;4989;48.772;9.154;2023-05-10T02:48:34;0.73;;;0.47;;
9900;SDS011;4989;48.772;9.154;2023-05-10T02:53:37;0.40;;;0.40;;
9900;SDS011;4989;48.772;9.154;2023-05-10T02:58:42;0.50;;;0.50;;
9900;SDS011;4989;48.772;9.154;2023-05-10T03:03:44;0.77;;;0.40;;
9900;SDS011;4989;48.772;9.154;2023-05-10T03:08:47;0.93;;;0.50;;
9900;SDS011;4989;48.772;9.154;2023-05-10T03:19:18;286.63;;;215.23;;
9900;SDS011;4989;48.772;9.154;2023-05-10T03:25:05;343.87;;;307.50;;
9900;SDS011;4989;48.772;9.154;2023-05-10T03:30:13;312.93;;;271.13;;
9900;SDS011;4989;48.772;9.154;2023-05-10T03:35:16;273.63;;;197.53;;
9900;SDS011;4989;48.772;9.154;2023-05-10T03:40:18;360.97;;;323.90;;
9900;SDS011;4989;48.772;9.154;2023-05-10T03:45:21;0.70;;;0.70;;
9900;SDS011;4989;48.772;9.154;2023-05-10T03:50:24;2.43;;;0.77;;
9900;SDS011;4989;48.772;9.154;2023-05-10T03:55:27;0.87;;;0.80;;
9900;SDS011;4989;48.772;9.154;2023-05-10T04:00:31;0.77;;;0.70;;
9900;SDS011;4989;48.772;9.154;2023-05-10T04:05:34;1.13;;;0.87;;
9900;SDS011;4989;48.772;9.154;2023-05-10T04:10:37;1.20;;;0.80;;
9900;SDS011;4989;48.772;9.154;2023-05-10T04:15:40;0.73;;;0.73;;
9900;SDS011;4989;48.772;9.154;2023-05-10T04:20:42;0.90;;;0.80;;
9900;SDS011;4989;48.772;9.154;2023-05-10T04:25:44;3.40;;;0.80;;
9900;SDS011;4989;48.772;9.154;2023-05-10T04:30:47;0.80;;;0.80;;
9900;SDS011;4989;48.772;9.154;2023-05-10T04:35:49;1.70;;;0.90;;
9900;SDS011;4989;48.772;9.154;2023-05-10T04:40:51;2.83;;;0.90;;
9900;SDS011;4989;48.772;9.154;2023-05-10T04:45:56;2.30;;;0.90;;
9900;SDS011;4989;48.772;9.154;2023-05-10T04:50:58;2.10;;;1.00;;
9900;SDS011;4989;48.772;9.154;2023-05-10T04:56:01;35.40;;;33.20;;
9900;SDS011;4989;48.772;9.154;2023-05-10T05:01:06;448.17;;;415.30;;
9900;SDS011;4989;48.772;9.154;2023-05-10T05:06:12;3.27;;;1.03;;
9900;SDS011;4989;48.772;9.154;2023-05-10T05:11:14;0.80;;;0.80;;
9900;SDS011;4989;48.772;9.154;2023-05-10T05:16:17;1.00;;;1.00;;
9900;SDS011;4989;48.772;9.154;2023-05-10T05:21:19;0.90;;;0.90;;
9900;SDS011;4989;48.772;9.154;2023-05-10T05:26:23;1.20;;;0.80;;
9900;SDS011;4989;48.772;9.154;2023-05-10T05:31:25;1.70;;;1.17;;
9900;SDS011;4989;48.772;9.154;2023-05-10T05:36:27;2.93;;;1.03;;
9900;SDS011;4989;48.772;9.154;2023-05-10T05:41:29;1.37;;;1.00;;
9900;SDS011;4989;48.772;9.154;2023-05-10T05:46:32;0.90;;;0.90;;
9900;SDS011;4989;48.772;9.154;2023-05-10T05:51:34;1.20;;;1.20;;
9900;SDS011;4989;48.772;9.154;2023-05-10T05:56:36;18.67;;;12.47;;
9900;SDS011;4989;48.772;9.154;2023-05-10T06:01:39;1.30;;;0.90;;
9900;SDS011;4989;48.772;9.154;2023-05-10T06:06:41;1.93;;;1.00;;
9900;SDS011;4989;48.772;9.154;2023-05-10T06:11:44;2.80;;;1.30;;
9900;SDS011;4989;48.772;9.154;2023-05-10T06:16:46;0.80;;;0.80;;
9900;SDS011;4989;48.772;9.154;2023-05-10T06:21:48;0.80;;;0.80;;
9900;SDS011;4989;48.772;9.154;2023-05-10T06:26:54;3.07;;;1.20;;
9900;SDS011;4989;48.772;9.154;2023-05-10T06:31:56;5.03;;;1.40;;
9900;SDS011;4989;48.772;9.154;2023-05-10T06:36:58;1.03;;;1.03;;
9900;SDS011;4989;48.772;9.154;2023-05-10T06:42:01;1.13;;;1.13;;
9900;SDS011;4989;48.772;9.154;2023-05-10T06:47:09;1.80;;;1.30;;
9900;SDS011;4989;48.772;9.154;2023-05-10T06:52:11;1.00;;;1.00;;
9900;SDS011;4989;48.772;9.154;2023-05-10T06:57:13;429.47;;;388.63;;
9900;SDS011;4989;48.772;9.154;2023-05-10T07:02:41;355.81;;;318.70;;
9900;SDS011;4989;48.772;9.154;2023-05-10T07:07:43;1.57;;;1.00;;
9900;SDS011;4989;48.772;9.154;2023-05-10T07:12:46;300.13;;;228.10;;
9900;SDS011;4989;48.772;9.154;2023-05-10T07:17:48;305.07;;;239.03;;
9900;SDS011;4989;48.772;9.154;2023-05-10T07:22:50;313.20;;;262.77;;
9900;SDS011;4989;48.772;9.154;2023-05-10T07:27:53;352.03;;;314.60;;
9900;SDS011;4989;48.772;9.154;2023-05-10T07:32:55;307.80;;;255.77;;
9900;SDS011;4989;48.772;9.154;2023-05-10T07:37:57;356.57;;;319.97;;
9900;SDS011;4989;48.772;9.154;2023-05-10T07:43:00;359.33;;;321.97;;
9900;SDS011;4989;48.772;9.154;2023-05-10T07:48:03;412.37;;;372.70;;
9900;SDS011;4989;48.772;9.154;2023-05-10T07:53:05;350.17;;;313.87;;
9900;SDS011;4989;48.772;9.154;2023-05-10T07:58:07;415.77;;;376.10;;
9900;SDS011;4989;48.772;9.154;2023-05-10T08:03:10;411.13;;;371.17;;
9900;SDS011;4989;48.772;9.154;2023-05-10T08:08:12;347.47;;;310.97;;
9900;SDS011;4989;48.772;9.154;2023-05-10T08:13:15;414.27;;;374.27;;
9900;SDS011;4989;48.772;9.154;2023-05-10T08:18:17;0.90;;;0.90;;
9900;SDS011;4989;48.772;9.154;2023-05-10T08:23:22;2.53;;;0.90;;
9900;SDS011;4989;48.772;9.154;2023-05-10T08:28:24;0.80;;;0.80;;
9900;SDS011;4989;48.772;9.154;2023-05-10T08:33:27;1.90;;;0.90;;
9900;SDS011;4989;48.772;9.154;2023-05-10T08:38:29;3.23;;;0.90;;
9900;SDS011;4989;48.772;9.154;2023-05-10T08:43:32;8.83;;;5.70;;
9900;SDS011;4989;48.772;9.154;2023-05-10T08:48:35;1.60;;;0.90;;
9900;SDS011;4989;48.772;9.154;2023-05-10T08:53:40;1.10;;;0.93;;
9900;SDS011;4989;48.772;9.154;2023-05-10T08:58:43;1.03;;;0.93;;
9900;SDS011;4989;48.772;9.154;2023-05-10T09:03:46;2.03;;;1.20;;
9900;SDS011;4989;48.772;9.154;2023-05-10T09:08:49;0.60;;;0.60;;
9900;SDS011;4989;48.772;9.154;2023-05-10T09:13:52;1.10;;;0.93;;
9900;SDS011;4989;48.772;9.154;2023-05-10T09:18:55;3.50;;;3.00;;
9900;SDS011;4989;48.772;9.154;2023-05-10T09:23:58;2.03;;;0.80;;
9900;SDS011;4989;48.772;9.154;2023-05-10T09:29:08;0.70;;;0.70;;
9900;SDS011;4989;48.772;9.154;2023-05-10T09:34:10;0.70;;;0.70;;
9900;SDS011;4989;48.772;9.154;2023-05-10T09:39:13;2.70;;;1.00;;
9900;SDS011;4989;48.772;9.154;2023-05-10T09:44:16;2.93;;;0.77;;
9900;SDS011;4989;48.772;9.154;2023-05-10T09:49:20;1.97;;;1.20;;
9900;SDS011;4989;48.772;9.154;2023-05-10T09:54:23;0.50;;;0.50;;
9900;SDS011;4989;48.772;9.154;2023-05-10T09:59:26;1.60;;;1.50;;
9900;SDS011;4989;48.772;9.154;2023-05-10T10:04:30;0.50;;;0.50;;
9900;SDS011;4989;48.772;9.154;2023-05-10T10:09:32;1.73;;;1.43;;
9900;SDS011;4989;48.772;9.154;2023-05-10T10:14:36;1.40;;;1.27;;
9900;SDS011;4989;48.772;9.154;2023-05-10T10:19:39;1.53;;;1.43;;
9900;SDS011;4989;48.772;9.154;2023-05-10T10:24:42;0.90;;;0.90;;
9900;SDS011;4989;48.772;9.154;2023-05-10T10:29:50;0.77;;;0.77;;
9900;SDS011;4989;48.772;9.154;2023-05-10T10:35:08;5.10;;;1.50;;
9900;SDS011;4989;48.772;9.154;2023-05-10T10:40:29;0.80;;;0.80;;
9900;SDS011;4989;48.772;9.154;2023-05-10T10:45:38;1.77;;;0.70;;
9900;SDS011;4989;48.772;9.154;2023-05-10T10:50:45;0.67;;;0.67;;
9900;SDS011;4989;48.772;9.154;2023-05-10T10:55:48;1.43;;;1.20;;
9900;SDS011;4989;48.772;9.154;2023-05-10T11:00:50;0.83;;;0.80;;
9900;SDS011;4989;48.772;9.154;2023-05-10T11:06:28;0.90;;;0.90;;
9900;SDS011;4989;48.772;9.154;2023-05-10T11:11:33;0.70;;;0.70;;
9900;SDS011;4989;48.772;9.154;2023-05-10T11:16:41;0.80;;;0.80;;
9900;SDS011;4989;48.772;9.154;2023-05-10T11:27:18;0.80;;;0.80;;
9900;SDS011;4989;48.772;9.154;2023-05-10T11:32:21;1.37;;;0.50;;
9900;SDS011;4989;48.772;9.154;2023-05-10T11:37:27;1.50;;;0.80;;
9900;SDS011;4989;48.772;9.154;2023-05-10T11:42:33;1.60;;;0.80;;
9900;SDS011;4989;48.772;9.154;2023-05-10T11:47:35;1.17;;;1.10;;
9900;SDS011;4989;48.772;9.154;2023-05-10T11:52:38;0.90;;;0.90;;
9900;SDS011;4989;48.772;9.154;2023-05-10T11:57:41;0.70;;;0.70;;
9900;SDS011;4989;48.772;9.154;2023-05-10T12:02:45;1.00;;;0.80;;
9900;SDS011;4989;48.772;9.154;2023-05-10T12:07:48;0.80;;;0.80;;
9900;SDS011;4989;48.772;9.154;2023-05-10T12:12:51;1.10;;;0.90;;
9900;SDS011;4989;48.772;9.154;2023-05-10T12:17:54;0.70;;;0.70;;
9900;SDS011;4989;48.772;9.154;2023-05-10T12:22:58;0.70;;;0.70;;
9900;SDS011;4989;48.772;9.154;2023-05-10T12:28:04;1.00;;;1.00;;
9900;SDS011;4989;48.772;9.154;2023-05-10T12:33:10;1.60;;;1.00;;
9900;SDS011;4989;48.772;9.154;2023-05-10T12:38:24;0.90;;;0.90;;
9900;SDS011;4989;48.772;9.154;2023-05-10T12:43:27;1.13;;;0.90;;
9900;SDS011;4989;48.772;9.154;2023-05-10T12:48:29;2.00;;;0.83;;
9900;SDS011;4989;48.772;9.154;2023-05-10T12:53:32;2.03;;;1.83;;
9900;SDS011;4989;48.772;9.154;2023-05-10T12:58:35;2.73;;;1.20;;
9900;SDS011;4989;48.772;9.154;2023-05-10T13:03:37;1.37;;;1.00;;
9900;SDS011;4989;48.772;9.154;2023-05-10T13:08:39;1.13;;;0.83;;
9900;SDS011;4989;48.772;9.154;2023-05-10T13:13:42;0.80;;;0.80;;
9900;SDS011;4989;48.772;9.154;2023-05-10T13:18:44;1.23;;;0.97;;
9900;SDS011;4989;48.772;9.154;2023-05-10T13:23:46;0.93;;;0.93;;
9900;SDS011;4989;48.772;9.154;2023-05-10T13:28:48;2.13;;;0.80;;
9900;SDS011;4989;48.772;9.154;2023-05-10T13:33:53;1.13;;;1.03;;
9900;SDS011;4989;48.772;9.154;2023-05-10T13:38:56;0.80;;;0.80;;
9900;SDS011;4989;48.772;9.154;2023-05-10T13:43:58;1.27;;;1.10;;
9900;SDS011;4989;48.772;9.154;2023-05-10T13:49:00;0.80;;;0.80;;
9900;SDS011;4989;48.772;9.154;2023-05-10T13:54:02;1.00;;;1.00;;
9900;SDS011;4989;48.772;9.154;2023-05-10T13:59:04;4.37;;;1.10;;
9900;SDS011;4989;48.772;9.154;2023-05-10T14:04:07;2.03;;;0.90;;
9900;SDS011;4989;48.772;9.154;2023-05-10T14:09:11;0.97;;;0.93;;
9900;SDS011;4989;48.772;9.154;2023-05-10T14:14:14;1.00;;;1.00;;
9900;SDS011;4989;48.772;9.154;2023-05-10T14:19:19;1.20;;;1.10;;
9900;SDS011;4989;48.772;9.154;2023-05-10T14:24:21;1.30;;;0.90;;
9900;SDS011;4989;48.772;9.154;2023-05-10T14:29:24;1.33;;;1.00;;
9900;SDS011;4989;48.772;9.154;2023-05-10T14:34:26;1.50;;;1.00;;
9900;SDS011;4989;48.772;9.154;2023-05-10T14:39:29;2.40;;;1.20;;
9900;SDS011;4989;48.772;9.154;2023-05-10T14:44:31;0.87;;;0.53;;
9900;SDS011;4989;48.772;9.154;2023-05-10T14:49:33;1.00;;;1.00;;
9900;SDS011;4989;48.772;9.154;2023-05-10T14:54:35;0.80;;;0.80;;
9900;SDS011;4989;48.772;9.154;2023-05-10T14:59:38;0.83;;;0.83;;
9900;SDS011;4989;48.772;9.154;2023-05-10T15:04:40;1.40;;;1.03;;
9900;SDS011;4989;48.772;9.154;2023-05-10T15:09:44;0.90;;;0.90;;
9900;SDS011;4989;48.772;9.154;2023-05-10T15:14:46;2.57;;;1.37;;
9900;SDS011;4989;48.772;9.154;2023-05-10T15:19:49;1.80;;;1.00;;
9900;SDS011;4989;48.772;9.154;2023-05-10T15:24:51;2.97;;;1.67;;
9900;SDS011;4989;48.772;9.154;2023-05-10T15:29:54;91.03;;;38.47;;
9900;SDS011;4989;48.772;9.154;2023-05-10T15:34:56;101.10;;;38.80;;
9900;SDS011;4989;48.772;9.154;2023-05-10T15:39:59;5.83;;;2.40;;
9900;SDS011;4989;48.772;9.154;2023-05-10T15:45:05;1.43;;;0.93;;
9900;SDS011;4989;48.772;9.154;2023-05-10T15:50:08;3.23;;;1.90;;
9900;SDS011;4989;48.772;9.154;2023-05-10T15:55:11;6.13;;;2.47;;
9900;SDS011;4989;48.772;9.154;2023-05-10T16:00:14;172.47;;;63.93;;
9900;SDS011;4989;48.772;9.154;2023-05-10T16:05:18;119.50;;;44.80;;
9900;SDS011;4989;48.772;9.154;2023-05-10T16:10:20;1.10;;;1.00;;
9900;SDS011;4989;48.772;9.154;2023-05-10T16:15:22;6.73;;;3.33;;
9900;SDS011;4989;48.772;9.154;2023-05-10T16:20:25;123.30;;;47.80;;
9900;SDS011;4989;48.772;9.154;2023-05-10T16:25:28;2.70;;;0.90;;
9900;SDS011;4989;48.772;9.154;2023-05-10T16:30:30;1.40;;;1.23;;
9900;SDS011;4989;48.772;9.154;2023-05-10T16:35:33;1.67;;;0.97;;
9900;SDS011;4989;48.772;9.154;2023-05-10T16:40:35;1.87;;;1.43;;
9900;SDS011;4989;48.772;9.154;2023-05-10T16:45:37;0.80;;;0.80;;
9900;SDS011;4989;48.772;9.154;2023-05-10T16:50:42;0.50;;;0.50;;
9900;SDS011;4989;48.772;9.154;2023-05-10T16:55:45;1.30;;;0.67;;
9900;SDS011;4989;48.772;9.154;2023-05-10T17:00:47;2.50;;;0.80;;
9900;SDS011;4989;48.772;9.154;2023-05-10T17:05:49;1.90;;;0.87;;
9900;SDS011;4989;48.772;9.154;2023-05-10T17:10:52;1.60;;;0.90;;
9900;SDS011;4989;48.772;9.154;2023-05-10T17:15:54;0.60;;;0.60;;
9900;SDS011;4989;48.772;9.154;2023-05-10T17:20:57;1.10;;;0.63;;
9900;SDS011;4989;48.772;9.154;2023-05-10T17:26:02;0.70;;;0.60;;
9900;SDS011;4989;48.772;9.154;2023-05-10T17:31:05;2.53;;;0.80;;
9900;SDS011;4989;48.772;9.154;2023-05-10T17:36:08;232.33;;;221.30;;
9900;SDS011;4989;48.772;9.154;2023-05-10T17:41:10;1.67;;;0.80;;
9900;SDS011;4989;48.772;9.154;2023-05-10T17:46:12;1.20;;;1.00;;
9900;SDS011;4989;48.772;9.154;2023-05-10T17:51:14;0.93;;;0.80;;
9900;SDS011;4989;48.772;9.154;2023-05-10T17:56:17;2.57;;;1.00;;
9900;SDS011;4989;48.772;9.154;2023-05-10T18:01:19;0.80;;;0.80;;
9900;SDS011;4989;48.772;9.154;2023-05-10T18:06:21;0.83;;;0.83;;
9900;SDS011;4989;48.772;9.154;2023-05-10T18:11:24;0.90;;;0.90;;
9900;SDS011;4989;48.772;9.154;2023-05-10T18:16:26;1.40;;;0.70;;
9900;SDS011;4989;48.772;9.154;2023-05-10T18:21:29;0.90;;;0.90;;
9900;SDS011;4989;48.772;9.154;2023-05-10T18:26:31;0.60;;;0.60;;
9900;SDS011;4989;48.772;9.154;2023-05-10T18:31:34;0.83;;;0.83;;
9900;SDS011;4989;48.772;9.154;2023-05-10T18:36:36;1.13;;;0.93;;
9900;SDS011;4989;48.772;9.154;2023-05-10T18:41:39;1.80;;;1.20;;
9900;SDS011;4989;48.772;9.154;2023-05-10T18:46:41;1.10;;;1.00;;
9900;SDS011;4989;48.772;9.154;2023-05-10T18:51:44;1.00;;;1.00;;
9900;SDS011;4989;48.772;9.154;2023-05-10T18:56:47;1.20;;;1.10;;
9900;SDS011;4989;48.772;9.154;2023-05-10T19:01:50;0.90;;;0.90;;
9900;SDS011;4989;48.772;9.154;2023-05-10T19:06:55;1.30;;;1.20;;
9900;SDS011;4989;48.772;9.154;2023-05-10T19:11:57;1.50;;;0.90;;
9900;SDS011;4989;48.772;9.154;2023-05-10T19:17:00;1.00;;;1.00;;
9900;SDS011;4989;48.772;9.154;2023-05-10T19:22:03;0.87;;;0.87;;
9900;SDS011;4989;48.772;9.154;2023-05-10T19:27:05;1.33;;;1.10;;
9900;SDS011;4989;48.772;9.154;2023-05-10T19:32:07;1.03;;;1.03;;
9900;SDS011;4989;48.772;9.154;2023-05-10T19:37:09;1.20;;;1.20;;
9900;SDS011;4989;48.772;9.154;2023-05-10T19:42:12;0.87;;;0.87;;
9900;SDS011;4989;48.772;9.154;2023-05-10T19:47:15;1.70;;;1.20;;
9900;SDS011;4989;48.772;9.154;2023-05-10T19:52:17;0.93;;;0.93;;
9900;SDS011;4989;48.772;9.154;2023-05-10T19:57:19;1.93;;;1.00;;
9900;SDS011;4989;48.772;9.154;2023-05-10T20:02:21;0.90;;;0.90;;
9900;SDS011;4989;48.772;9.154;2023-05-10T20:07:24;1.20;;;1.10;;
9900;SDS011;4989;48.772;9.154;2023-05-10T20:12:26;1.27;;;1.00;;
9900;SDS011;4989;48.772;9.154;2023-05-10T20:17:29;1.00;;;1.00;;
9900;SDS011;4989;48.772;9.154;2023-05-10T20:22:31;0.87;;;0.87;;
9900;SDS011;4989;48.772;9.154;2023-05-10T20:27:33;1.20;;;1.10;;
9900;SDS011;4989;48.772;9.154;2023-05-10T20:32:36;2.40;;;1.10;;
9900;SDS011;4989;48.772;9.154;2023-05-10T20:37:39;0.90;;;0.90;;
9900;SDS011;4989;48.772;9.154;2023-05-10T20:42:41;1.83;;;0.80;;
9900;SDS011;4989;48.772;9.154;2023-05-10T20:47:43;1.57;;;0.93;;
9900;SDS011;4989;48.772;9.154;2023-05-10T20:52:45;0.80;;;0.80;;
9900;SDS011;4989;48.772;9.154;2023-05-10T20:57:48;0.70;;;0.70;;
9900;SDS011;4989;48.772;9.154;2023-05-10T21:02:50;0.60;;;0.60;;
9900;SDS011;4989;48.772;9.154;2023-05-10T21:07:52;0.93;;;0.77;;
9900;SDS011;4989;48.772;9.154;2023-05-10T21:12:55;0.90;;;0.90;;
9900;SDS011;4989;48.772;9.154;2023-05-10T21:17:57;0.80;;;0.67;;
9900;SDS011;4989;48.772;9.154;2023-05-10T21:23:00;1.13;;;1.03;;
9900;SDS011;4989;48.772;9.154;2023-05-10T21:28:02;0.70;;;0.70;;
9900;SDS011;4989;48.772;9.154;2023-05-10T21:33:04;2.73;;;0.77;;
9900;SDS011;4989;48.772;9.154;2023-05-10T21:38:07;2.73;;;0.90;;
9900;SDS011;4989;48.772;9.154;2023-05-10T21:43:10;1.30;;;0.80;;
9900;SDS011;4989;48.772;9.154;2023-05-10T21:48:12;1.13;;;1.03;;
9900;SDS011;4989;48.772;9.154;2023-05-10T21:53:14;1.37;;;0.80;;
9900;SDS011;4989;48.772;9.154;2023-05-10T21:58:17;0.73;;;0.73;;
9900;SDS011;4989;48.772;9.154;2023-05-10T22:03:19;0.63;;;0.63;;
9900;SDS011;4989;48.772;9.154;2023-05-10T22:08:22;0.70;;;0.70;;
9900;SDS011;4989;48.772;9.154;2023-05-10T22:13:25;5.00;;;0.80;;
9900;SDS011;4989;48.772;9.154;2023-05-10T22:18:27;1.57;;;0.97;;
9900;SDS011;4989;48.772;9.154;2023-05-10T22:23:30;0.67;;;0.67;;
9900;SDS011;4989;48.772;9.154;2023-05-10T22:28:32;0.53;;;0.53;;
9900;SDS011;4989;48.772;9.154;2023-05-10T22:33:34;1.00;;;0.80;;
9900;SDS011;4989;48.772;9.154;2023-05-10T22:38:36;23.73;;;22.67;;
9900;SDS011;4989;48.772;9.154;2023-05-10T22:43:38;0.63;;;0.63;;
9900;SDS011;4989;48.772;9.154;2023-05-10T22:48:41;0.70;;;0.70;;
9900;SDS011;4989;48.772;9.154;2023-05-10T22:53:43;0.73;;;0.73;;
9900;SDS011;4989;48.772;9.154;2023-05-10T22:58:46;0.80;;;0.80;;
9900;SDS011;4989;48.772;9.154;2023-05-10T23:03:50;0.80;;;0.80;;
9900;SDS011;4989;48.772;9.154;2023-05-10T23:08:52;0.73;;;0.73;;
9900;SDS011;4989;48.772;9.154;2023-05-10T23:13:55;0.40;;;0.40;;
9900;SDS011;4989;48.772;9.154;2023-05-10T23:18:58;0.80;;;0.80;;
9900;SDS011;4989;48.772;9.154;2023-05-10T23:24:00;3.30;;;0.80;;
9900;SDS011;4989;48.772;9.154;2023-05-10T23:29:02;0.70;;;0.70;;
9900;SDS011;4989;48.772;9.154;2023-05-10T23:34:04;0.70;;;0.70;;
9900;SDS011;4989;48.772;9.154;2023-05-10T23:39:06;0.60;;;0.60;;
9900;SDS011;4989;48.772;9.154;2023-05-10T23:44:08;0.87;;;0.87;;
9900;SDS011;4989;48.772;9.154;2023-05-10T23:49:11;1.50;;;0.70;;
9900;SDS011;4989;48.772;9.154;2023-05-10T23:54:13;0.93;;;0.57;;
9900;SDS011;4989;48.772;9.154;2023-05-10T23:59:15;1.07;;;0.73;;
